createdAt,value
2022-12-31T00:00:24.826Z,88.89
2022-12-31T00:05:47.798Z,88.88
2022-12-31T00:10:51.033Z,88.99
2022-12-31T00:15:53.914Z,88.93
2022-12-31T00:20:56.855Z,88.87
2022-12-31T00:26:09.897Z,88.96
2022-12-31T00:31:18.435Z,89.00
2022-12-31T00:36:27.592Z,89.09
2022-12-31T00:41:31.734Z,89.07
2022-12-31T00:51:37.341Z,88.76
2022-12-31T00:56:40.495Z,88.67
2022-12-31T01:01:43.683Z,88.57
2022-12-31T01:06:47.217Z,88.65
2022-12-31T01:11:51.535Z,88.72
2022-12-31T01:16:54.810Z,88.72
2022-12-31T01:21:58.241Z,88.65
2022-12-31T01:27:01.201Z,88.50
2022-12-31T01:32:04.390Z,88.47
2022-12-31T01:37:07.300Z,88.54
2022-12-31T01:42:12.239Z,88.54
2022-12-31T01:47:22.865Z,88.57
2022-12-31T01:52:42.698Z,88.58
2022-12-31T01:57:49.276Z,88.41
2022-12-31T02:02:53.096Z,88.36
2022-12-31T02:07:56.696Z,88.28
2022-12-31T02:13:00.104Z,88.19
2022-12-31T02:18:42.938Z,88.25
2022-12-31T02:23:51.733Z,88.25
2022-12-31T02:29:48.494Z,88.25
2022-12-31T02:35:00.034Z,88.24
2022-12-31T02:40:07.959Z,88.21
2022-12-31T02:45:17.516Z,88.25
2022-12-31T02:50:41.207Z,88.35
2022-12-31T02:56:09.499Z,88.05
2022-12-31T03:01:39.663Z,87.93
2022-12-31T03:06:43.425Z,87.67
2022-12-31T03:12:05.233Z,87.54
2022-12-31T03:17:08.234Z,87.71
2022-12-31T03:22:28.702Z,87.81
2022-12-31T03:27:31.681Z,87.74
2022-12-31T03:32:34.585Z,87.86
2022-12-31T03:37:39.793Z,87.85
2022-12-31T03:42:43.058Z,87.68
2022-12-31T03:47:46.624Z,87.63
2022-12-31T03:52:54.203Z,87.56
2022-12-31T03:57:57.603Z,87.46
2022-12-31T04:03:00.738Z,87.90
2022-12-31T04:08:04.569Z,88.00
2022-12-31T04:13:07.437Z,87.94
2022-12-31T04:18:10.328Z,87.59
2022-12-31T04:23:13.180Z,87.40
2022-12-31T04:28:16.164Z,87.76
2022-12-31T04:33:19.068Z,87.71
2022-12-31T04:38:21.941Z,87.86
2022-12-31T04:43:24.920Z,88.04
2022-12-31T04:48:27.883Z,88.32
2022-12-31T04:53:31.272Z,88.48
2022-12-31T04:58:35.150Z,88.88
2022-12-31T05:03:38.772Z,89.31
2022-12-31T05:08:42.218Z,89.57
2022-12-31T05:13:45.356Z,90.05
2022-12-31T05:18:48.259Z,90.07
2022-12-31T05:23:51.277Z,90.57
2022-12-31T05:28:55.364Z,90.56
2022-12-31T05:33:58.260Z,90.92
2022-12-31T05:39:01.186Z,91.00
2022-12-31T05:44:04.287Z,91.33
2022-12-31T05:49:07.298Z,91.33
2022-12-31T05:54:10.291Z,91.46
2022-12-31T05:59:13.238Z,91.36
2022-12-31T06:04:16.254Z,91.43
2022-12-31T06:09:19.692Z,91.48
2022-12-31T06:14:22.648Z,91.52
2022-12-31T06:19:25.768Z,91.47
2022-12-31T06:24:28.728Z,91.39
2022-12-31T06:29:31.699Z,91.33
2022-12-31T06:34:34.749Z,91.51
2022-12-31T06:39:37.731Z,91.49
2022-12-31T06:44:40.638Z,91.58
2022-12-31T06:49:43.647Z,91.67
2022-12-31T06:54:47.627Z,91.71
2022-12-31T06:59:51.122Z,91.68
2022-12-31T07:05:11.227Z,91.75
2022-12-31T07:10:53.915Z,91.72
2022-12-31T07:16:36.311Z,91.73
2022-12-31T07:21:41.839Z,91.75
2022-12-31T07:27:19.435Z,91.73
2022-12-31T07:32:48.281Z,91.67
2022-12-31T07:38:08.060Z,91.67
2022-12-31T07:43:40.473Z,91.68
2022-12-31T07:48:43.693Z,91.69
2022-12-31T07:53:46.589Z,91.76
2022-12-31T07:59:29.914Z,91.68
2022-12-31T08:04:46.642Z,91.64
2022-12-31T08:10:17.768Z,91.60
2022-12-31T08:15:26.834Z,91.70
2022-12-31T08:20:37.976Z,91.57
2022-12-31T08:26:20.396Z,91.58
2022-12-31T08:31:35.607Z,91.61
2022-12-31T08:37:03.375Z,91.61
2022-12-31T08:42:27.063Z,91.47
2022-12-31T08:47:38.579Z,91.39
2022-12-31T08:52:42.422Z,91.29
2022-12-31T08:58:03.669Z,91.52
2022-12-31T09:03:32.269Z,91.54
2022-12-31T09:09:03.237Z,91.43
2022-12-31T09:14:38.146Z,91.42
2022-12-31T09:19:41.658Z,91.55
2022-12-31T09:24:45.428Z,91.56
2022-12-31T09:30:00.227Z,91.77
2022-12-31T09:35:30.677Z,91.56
2022-12-31T09:40:51.460Z,91.67
2022-12-31T09:46:25.407Z,91.62
2022-12-31T09:51:57.822Z,91.51
2022-12-31T09:57:34.888Z,91.44
2022-12-31T10:02:59.730Z,91.52
2022-12-31T10:08:17.706Z,91.53
2022-12-31T10:13:53.625Z,91.50
2022-12-31T10:19:17.800Z,91.57
2022-12-31T10:25:00.924Z,91.73
2022-12-31T10:30:15.112Z,91.81
2022-12-31T10:35:41.900Z,91.85
2022-12-31T10:41:18.634Z,91.90
2022-12-31T10:47:05.284Z,92.04
2022-12-31T10:52:29.078Z,92.00
2022-12-31T10:58:18.357Z,92.06
2022-12-31T11:03:28.873Z,92.16
2022-12-31T11:09:02.335Z,92.29
2022-12-31T11:14:36.142Z,92.44
2022-12-31T11:20:15.412Z,92.47
2022-12-31T11:25:41.288Z,92.55
2022-12-31T11:31:16.393Z,92.59
2022-12-31T11:36:51.720Z,92.71
2022-12-31T11:42:24.003Z,92.78
2022-12-31T11:48:28.013Z,92.84
2022-12-31T11:53:35.058Z,92.91
2022-12-31T11:58:38.599Z,93.11
2022-12-31T12:03:43.875Z,93.19
2022-12-31T12:08:47.797Z,93.28
2022-12-31T12:13:53.932Z,93.26
2022-12-31T12:19:07.755Z,93.29
2022-12-31T12:24:26.809Z,93.34
2022-12-31T12:29:35.083Z,93.57
2022-12-31T12:34:45.924Z,93.50
2022-12-31T12:40:07.155Z,93.57
2022-12-31T12:45:20.340Z,93.58
2022-12-31T12:50:36.351Z,93.62
2022-12-31T12:55:53.439Z,93.74
2022-12-31T13:01:34.255Z,93.64
2022-12-31T13:07:17.210Z,93.75
2022-12-31T13:13:22.146Z,93.61
2022-12-31T13:18:27.985Z,93.60
2022-12-31T13:24:07.871Z,93.51
2022-12-31T13:29:20.923Z,93.63
2022-12-31T13:34:32.840Z,93.61
2022-12-31T13:39:43.677Z,93.54
2022-12-31T13:45:01.772Z,93.46
2022-12-31T13:50:26.839Z,93.34
2022-12-31T13:55:41.621Z,93.38
2022-12-31T14:00:54.957Z,93.14
2022-12-31T14:06:47.770Z,93.03
2022-12-31T14:12:15.196Z,93.00
2022-12-31T14:17:52.324Z,92.94
2022-12-31T14:23:18.875Z,92.96
2022-12-31T14:28:46.404Z,92.90
2022-12-31T14:34:52.819Z,92.81
2022-12-31T14:40:26.305Z,92.79
2022-12-31T14:46:04.187Z,92.79
2022-12-31T14:51:07.868Z,92.71
2022-12-31T14:56:42.346Z,92.60
2022-12-31T15:01:45.727Z,92.37
2022-12-31T15:07:05.424Z,92.26
2022-12-31T15:12:17.318Z,92.11
2022-12-31T15:17:59.933Z,92.14
2022-12-31T15:23:02.999Z,92.00
2022-12-31T15:28:08.757Z,92.00
2022-12-31T15:33:31.657Z,91.88
2022-12-31T15:38:39.188Z,91.86
2022-12-31T15:44:08.694Z,91.63
2022-12-31T15:49:23.551Z,91.40
2022-12-31T15:54:44.473Z,91.25
2022-12-31T15:59:47.810Z,91.36
2022-12-31T16:04:52.081Z,91.46
2022-12-31T16:09:59.822Z,91.48
2022-12-31T16:15:03.348Z,91.49
2022-12-31T16:20:31.253Z,91.26
2022-12-31T16:25:34.382Z,91.11
2022-12-31T16:30:37.388Z,91.14
2022-12-31T16:35:40.590Z,91.07
2022-12-31T16:41:03.532Z,91.09
2022-12-31T16:46:30.658Z,90.96
2022-12-31T16:51:37.688Z,90.89
2022-12-31T16:56:42.636Z,90.88
2022-12-31T17:01:46.913Z,90.90
2022-12-31T17:06:50.186Z,90.82
2022-12-31T17:11:56.409Z,91.04
2022-12-31T17:17:04.133Z,91.15
2022-12-31T17:22:35.735Z,90.96
2022-12-31T17:27:39.700Z,91.04
2022-12-31T17:32:45.078Z,91.24
2022-12-31T17:37:48.284Z,91.32
2022-12-31T17:42:51.391Z,91.37
2022-12-31T17:47:59.820Z,91.47
2022-12-31T17:53:12.859Z,91.76
2022-12-31T17:58:43.871Z,91.93
2022-12-31T18:03:48.114Z,92.00
2022-12-31T18:08:51.077Z,92.28
2022-12-31T18:13:54.873Z,92.36
2022-12-31T18:19:00.655Z,92.54
2022-12-31T18:29:19.536Z,92.74
2022-12-31T18:34:22.428Z,92.93
2022-12-31T18:39:25.356Z,92.89
2022-12-31T18:44:28.265Z,92.95
2022-12-31T18:49:31.612Z,92.93
2022-12-31T18:54:34.611Z,93.00
2022-12-31T18:59:37.582Z,92.93
2022-12-31T19:04:40.462Z,92.83
2022-12-31T19:09:45.913Z,92.86
2022-12-31T19:14:49.372Z,92.88
2022-12-31T19:19:52.294Z,92.98
2022-12-31T19:24:55.165Z,92.97
2022-12-31T19:29:58.030Z,93.15
2022-12-31T19:35:00.872Z,93.26
2022-12-31T19:40:04.281Z,93.19
2022-12-31T19:45:20.696Z,93.07
2022-12-31T19:50:28.082Z,92.93
2022-12-31T19:55:33.073Z,92.97
2022-12-31T20:00:36.115Z,93.14
2022-12-31T20:05:39.151Z,93.13
2022-12-31T20:10:42.681Z,93.19
2022-12-31T20:15:47.940Z,93.29
2022-12-31T20:20:55.755Z,93.36
2022-12-31T20:26:01.191Z,93.13
2022-12-31T20:31:12.510Z,93.15
2022-12-31T20:36:17.459Z,93.01
2022-12-31T20:41:22.722Z,93.04
2022-12-31T20:46:29.911Z,93.02
2022-12-31T20:51:35.149Z,93.10
2022-12-31T20:56:41.546Z,92.96
2022-12-31T21:02:19.214Z,92.97
2022-12-31T21:07:07.878Z,92.89
2022-12-31T21:12:38.857Z,92.83
2022-12-31T21:17:41.751Z,92.71
2022-12-31T21:22:44.685Z,92.79
2022-12-31T21:27:47.525Z,92.79
2022-12-31T21:32:50.386Z,92.67
2022-12-31T21:37:58.216Z,92.61
2022-12-31T21:43:03.052Z,92.57
2022-12-31T21:48:23.345Z,92.43
2022-12-31T21:53:32.197Z,92.09
2022-12-31T21:58:43.017Z,91.85
2022-12-31T22:03:46.163Z,91.51
2022-12-31T22:08:53.458Z,91.59
2022-12-31T22:13:56.472Z,91.44
2022-12-31T22:18:59.350Z,91.37
2022-12-31T22:24:03.182Z,91.18
2022-12-31T22:29:06.149Z,91.14
2022-12-31T22:34:09.087Z,90.82
2022-12-31T22:39:43.613Z,90.62
2022-12-31T22:44:38.887Z,90.57
2022-12-31T22:49:41.756Z,90.60
2022-12-31T22:54:44.658Z,90.54
2022-12-31T22:59:47.640Z,90.55
2022-12-31T23:04:50.575Z,90.55
2022-12-31T23:10:11.862Z,90.56
2022-12-31T23:15:33.493Z,90.11
2022-12-31T23:20:57.508Z,89.69
2022-12-31T23:26:02.127Z,89.04
2022-12-31T23:31:08.154Z,88.11
2022-12-31T23:36:11.439Z,87.38
2022-12-31T23:41:19.317Z,87.76
2022-12-31T23:46:22.305Z,86.97
2022-12-31T23:51:25.306Z,87.07
2022-12-31T23:56:28.205Z,86.69
